createdAt,value
2019-02-02T00:01:37.330Z,74.97
2019-02-02T00:04:04.641Z,69.63
2019-02-02T00:06:31.621Z,78.47
2019-02-02T00:08:58.518Z,106.53
2019-02-02T00:11:25.550Z,112.13
2019-02-02T00:13:52.446Z,105.23
2019-02-02T00:16:19.432Z,111.63
2019-02-02T00:18:46.443Z,135.27
2019-02-02T00:21:13.433Z,126.70
2019-02-02T00:23:40.311Z,124.90
2019-02-02T00:26:07.406Z,124.17
2019-02-02T00:28:34.219Z,122.53
2019-02-02T00:31:01.213Z,123.33
2019-02-02T00:33:28.102Z,117.13
2019-02-02T00:35:54.977Z,116.37
2019-02-02T00:38:21.864Z,119.43
2019-02-02T00:40:51.592Z,112.83
2019-02-02T00:43:18.570Z,114.87
2019-02-02T00:45:45.354Z,106.47
2019-02-02T00:48:12.337Z,103.10
2019-02-02T00:50:39.329Z,90.50
2019-02-02T00:53:06.317Z,92.00
2019-02-02T00:55:33.180Z,94.33
2019-02-02T00:58:00.181Z,101.57
2019-02-02T01:00:27.174Z,89.23
2019-02-02T01:02:54.597Z,91.83
2019-02-02T01:05:22.205Z,91.50
2019-02-02T01:07:49.445Z,91.70
2019-02-02T01:10:19.801Z,92.53
2019-02-02T01:12:46.918Z,106.53
2019-02-02T01:15:15.548Z,113.87
2019-02-02T01:17:42.445Z,138.25
2019-02-02T01:20:09.745Z,126.80
2019-02-02T01:22:36.734Z,118.13
2019-02-02T01:25:04.715Z,120.17
2019-02-02T01:27:31.606Z,111.95
2019-02-02T01:29:58.490Z,103.47
2019-02-02T01:32:25.413Z,102.23
2019-02-02T01:34:52.205Z,94.00
2019-02-02T01:37:19.100Z,106.90
2019-02-02T01:39:46.033Z,99.55
2019-02-02T01:42:12.957Z,103.53
2019-02-02T01:44:39.865Z,93.52
2019-02-02T01:47:06.772Z,90.60
2019-02-02T01:49:33.765Z,93.97
2019-02-02T01:52:00.652Z,92.03
2019-02-02T01:54:27.428Z,88.80
2019-02-02T01:56:54.444Z,80.35
2019-02-02T01:59:21.229Z,99.50
2019-02-02T02:01:48.105Z,86.80
2019-02-02T02:04:14.995Z,88.20
2019-02-02T02:06:42.003Z,86.80
2019-02-02T02:09:09.062Z,80.30
2019-02-02T02:11:36.061Z,75.60
2019-02-02T02:14:03.264Z,77.67
2019-02-02T02:16:30.362Z,83.17
2019-02-02T02:18:57.146Z,79.90
2019-02-02T02:21:24.145Z,74.90
2019-02-02T02:23:51.115Z,83.30
2019-02-02T02:26:17.996Z,85.87
2019-02-02T02:28:44.798Z,76.10
2019-02-02T02:31:11.691Z,77.10
2019-02-02T02:33:38.581Z,74.77
2019-02-02T02:36:05.578Z,70.47
2019-02-02T02:38:32.479Z,67.07
2019-02-02T02:40:59.531Z,82.77
2019-02-02T02:43:26.564Z,74.33
2019-02-02T02:45:53.336Z,68.43
2019-02-02T02:48:20.242Z,74.40
2019-02-02T02:50:47.123Z,70.80
2019-02-02T02:53:14.029Z,79.37
2019-02-02T02:55:41.009Z,71.07
2019-02-02T02:58:07.901Z,73.57
2019-02-02T03:00:34.677Z,86.50
2019-02-02T03:03:01.549Z,77.63
2019-02-02T03:05:28.546Z,85.65
2019-02-02T03:07:55.325Z,91.23
2019-02-02T03:10:22.957Z,95.47
2019-02-02T03:12:49.965Z,85.65
2019-02-02T03:15:17.393Z,82.02
2019-02-02T03:17:44.518Z,72.37
2019-02-02T03:20:12.059Z,71.47
2019-02-02T03:22:39.044Z,85.43
2019-02-02T03:25:08.738Z,83.27
2019-02-02T03:27:35.633Z,97.27
2019-02-02T03:30:03.616Z,85.40
2019-02-02T03:32:30.402Z,84.50
2019-02-02T03:34:57.389Z,98.25
2019-02-02T03:37:24.202Z,87.00
2019-02-02T03:39:51.186Z,92.20
2019-02-02T03:42:17.986Z,108.30
2019-02-02T03:44:44.858Z,99.90
2019-02-02T03:47:11.894Z,89.63
2019-02-02T03:49:38.686Z,82.72
2019-02-02T03:52:05.681Z,93.87
2019-02-02T03:54:32.454Z,83.17
2019-02-02T03:56:59.338Z,78.17
2019-02-02T03:59:26.214Z,86.97
2019-02-02T04:01:53.123Z,85.67
2019-02-02T04:04:19.985Z,76.57
2019-02-02T04:06:46.987Z,72.72
2019-02-02T04:09:13.861Z,61.37
2019-02-02T04:11:43.393Z,60.37
2019-02-02T04:14:09.569Z,67.40
2019-02-02T04:16:36.372Z,76.20
2019-02-02T04:19:03.472Z,73.70
2019-02-02T04:21:30.357Z,66.80
2019-02-02T04:23:57.250Z,67.20
2019-02-02T04:26:24.128Z,73.60
2019-02-02T04:28:51.137Z,68.70
2019-02-02T04:31:17.908Z,60.60
2019-02-02T04:33:44.717Z,66.02
2019-02-02T04:36:11.602Z,80.32
2019-02-02T04:38:38.424Z,77.08
2019-02-02T04:41:05.209Z,73.10
2019-02-02T04:43:32.209Z,81.25
2019-02-02T04:45:59.221Z,71.30
2019-02-02T04:48:26.024Z,63.92
2019-02-02T04:50:52.925Z,59.97
2019-02-02T04:53:19.746Z,65.78
2019-02-02T04:55:46.629Z,68.30
2019-02-02T04:58:13.412Z,77.92
2019-02-02T05:00:40.289Z,80.62
2019-02-02T05:03:07.173Z,78.90
2019-02-02T05:05:34.047Z,75.57
2019-02-02T05:08:00.836Z,72.47
2019-02-02T05:10:27.718Z,74.82
2019-02-02T05:12:54.518Z,67.87
2019-02-02T05:15:21.472Z,61.63
2019-02-02T05:17:48.281Z,63.75
2019-02-02T05:20:15.429Z,66.28
2019-02-02T05:22:42.412Z,68.02
2019-02-02T05:25:09.538Z,72.97
2019-02-02T05:27:36.538Z,69.07
2019-02-02T05:30:06.550Z,76.37
2019-02-02T05:32:33.530Z,81.90
2019-02-02T05:35:00.498Z,79.10
2019-02-02T05:37:27.614Z,80.83
2019-02-02T05:39:54.397Z,75.52
2019-02-02T05:42:21.293Z,85.55
2019-02-02T05:44:48.185Z,81.28
2019-02-02T05:47:15.081Z,81.35
2019-02-02T05:49:41.861Z,70.75
2019-02-02T05:52:08.641Z,77.75
2019-02-02T05:54:35.540Z,72.58
2019-02-02T05:57:02.413Z,74.58
2019-02-02T05:59:29.222Z,76.50
2019-02-02T06:01:56.204Z,89.28
2019-02-02T06:04:23.116Z,97.30
2019-02-02T06:06:49.913Z,87.67
2019-02-02T06:09:19.482Z,80.17
2019-02-02T06:11:47.508Z,94.20
2019-02-02T06:14:17.093Z,93.27
2019-02-02T06:16:43.982Z,78.85
2019-02-02T06:19:10.885Z,106.37
2019-02-02T06:21:37.736Z,106.12
2019-02-02T06:24:04.633Z,99.17
2019-02-02T06:26:31.421Z,93.10
2019-02-02T06:28:58.200Z,78.22
2019-02-02T06:31:25.173Z,74.53
2019-02-02T06:33:52.064Z,80.77
2019-02-02T06:36:18.938Z,63.42
2019-02-02T06:38:45.739Z,77.35
2019-02-02T06:41:12.617Z,81.55
2019-02-02T06:43:39.503Z,69.25
2019-02-02T06:46:06.381Z,80.42
2019-02-02T06:48:33.185Z,89.52
2019-02-02T06:50:59.966Z,84.80
2019-02-02T06:53:26.761Z,94.28
2019-02-02T06:55:53.753Z,96.72
2019-02-02T06:58:20.541Z,99.97
2019-02-02T07:00:47.314Z,94.95
2019-02-02T07:03:14.093Z,79.92
2019-02-02T07:05:40.981Z,78.75
2019-02-02T07:08:07.850Z,102.17
2019-02-02T07:10:34.901Z,93.75
2019-02-02T07:13:01.963Z,100.67
2019-02-02T07:15:28.969Z,117.10
2019-02-02T07:17:55.941Z,143.95
2019-02-02T07:20:22.961Z,119.53
2019-02-02T07:22:49.958Z,97.82
2019-02-02T07:25:16.945Z,112.37
2019-02-02T07:27:43.711Z,115.40
2019-02-02T07:30:27.628Z,125.12
2019-02-02T07:32:44.840Z,106.27
2019-02-02T07:35:11.875Z,93.35
2019-02-02T07:37:38.806Z,101.27
2019-02-02T07:40:07.609Z,103.60
2019-02-02T07:42:34.481Z,95.55
2019-02-02T07:45:01.418Z,100.15
2019-02-02T07:47:28.194Z,99.17
2019-02-02T07:49:55.202Z,106.25
2019-02-02T07:52:22.083Z,113.47
2019-02-02T07:54:48.973Z,125.15
2019-02-02T07:57:15.752Z,203.70
2019-02-02T07:59:42.565Z,125.20
2019-02-02T08:02:09.554Z,116.77
2019-02-02T08:04:36.686Z,106.85
2019-02-02T08:07:03.657Z,108.47
2019-02-02T08:09:30.545Z,93.67
2019-02-02T08:11:57.379Z,88.87
2019-02-02T08:14:24.265Z,63.17
2019-02-02T08:16:52.688Z,68.03
2019-02-02T08:19:19.887Z,60.65
2019-02-02T08:21:46.797Z,52.40
2019-02-02T08:24:13.725Z,53.67
2019-02-02T08:26:40.718Z,60.23
2019-02-02T08:29:07.718Z,56.30
2019-02-02T08:31:34.605Z,68.43
2019-02-02T08:34:01.518Z,67.10
2019-02-02T08:36:28.493Z,67.67
2019-02-02T08:38:55.394Z,61.77
2019-02-02T08:41:22.405Z,136.80
2019-02-02T08:43:49.215Z,43.13
2019-02-02T08:46:16.025Z,31.73
2019-02-02T08:48:42.904Z,23.37
2019-02-02T08:51:09.921Z,25.70
2019-02-02T08:53:36.737Z,24.93
2019-02-02T08:56:03.886Z,25.73
2019-02-02T08:58:30.838Z,32.87
2019-02-02T09:01:04.270Z,27.40
2019-02-02T09:03:26.514Z,25.77
2019-02-02T09:05:53.436Z,28.30
2019-02-02T09:08:20.307Z,29.33
2019-02-02T09:10:47.176Z,30.83
2019-02-02T09:13:13.953Z,28.33
2019-02-02T09:15:40.930Z,27.40
2019-02-02T09:18:07.925Z,24.57
2019-02-02T09:20:34.889Z,30.53
2019-02-02T09:23:06.155Z,33.73
2019-02-02T09:25:30.544Z,36.77
2019-02-02T09:27:57.394Z,35.43
2019-02-02T09:30:26.625Z,32.40
2019-02-02T09:32:53.620Z,36.47
2019-02-02T09:35:20.505Z,25.47
2019-02-02T09:37:47.501Z,24.20
2019-02-02T09:40:15.741Z,22.57
2019-02-02T09:42:42.641Z,18.70
2019-02-02T09:45:10.759Z,19.13
2019-02-02T09:47:37.654Z,15.03
2019-02-02T09:50:06.393Z,14.20
2019-02-02T09:52:33.385Z,14.30
2019-02-02T09:55:00.345Z,14.83
2019-02-02T09:57:27.766Z,12.73
2019-02-02T09:59:55.121Z,12.80
2019-02-02T10:02:21.917Z,11.53
2019-02-02T10:04:48.785Z,11.80
2019-02-02T10:07:15.567Z,13.03
2019-02-02T10:09:42.438Z,12.40
2019-02-02T10:12:09.272Z,10.47
2019-02-02T10:14:36.033Z,9.63
2019-02-02T10:17:03.165Z,9.07
2019-02-02T10:19:29.961Z,9.63
2019-02-02T10:21:56.751Z,9.53
2019-02-02T10:24:23.620Z,9.23
2019-02-02T10:26:50.494Z,8.90
2019-02-02T10:29:17.278Z,8.37
2019-02-02T10:31:44.188Z,8.87
2019-02-02T10:34:12.477Z,11.60
2019-02-02T10:36:39.757Z,10.03
2019-02-02T10:39:07.471Z,13.83
2019-02-02T10:41:34.262Z,12.37
2019-02-02T10:44:01.145Z,12.03
2019-02-02T10:46:28.117Z,12.57
2019-02-02T10:48:55.004Z,12.03
2019-02-02T10:51:22.014Z,12.37
2019-02-02T10:53:48.904Z,12.50
2019-02-02T10:56:15.881Z,14.17
2019-02-02T10:58:42.806Z,12.13
2019-02-02T11:01:09.779Z,10.47
2019-02-02T11:03:36.553Z,8.30
2019-02-02T11:06:03.874Z,7.70
2019-02-02T11:08:31.105Z,8.20
2019-02-02T11:10:58.188Z,6.47
2019-02-02T11:13:25.010Z,6.13
2019-02-02T11:15:51.975Z,7.43
2019-02-02T11:18:18.940Z,10.23
2019-02-02T11:20:46.017Z,6.57
2019-02-02T11:23:12.964Z,7.90
2019-02-02T11:25:40.252Z,7.50
2019-02-02T11:28:07.598Z,7.37
2019-02-02T11:30:34.776Z,6.53
2019-02-02T11:33:01.830Z,6.67
2019-02-02T11:35:28.710Z,8.13
2019-02-02T11:37:55.696Z,7.20
2019-02-02T11:40:27.687Z,6.93
2019-02-02T11:42:54.987Z,5.97
2019-02-02T11:45:21.970Z,7.33
2019-02-02T11:47:48.733Z,5.03
2019-02-02T11:50:15.862Z,5.60
2019-02-02T11:52:42.885Z,5.80
2019-02-02T11:55:10.578Z,5.70
2019-02-02T11:57:37.561Z,7.60
2019-02-02T12:00:08.984Z,5.60
2019-02-02T12:02:35.981Z,5.77
2019-02-02T12:05:03.681Z,4.80
2019-02-02T12:07:30.551Z,4.73
2019-02-02T12:09:57.322Z,4.60
2019-02-02T12:12:24.200Z,6.53
2019-02-02T12:14:50.992Z,4.97
2019-02-02T12:17:17.867Z,5.33
2019-02-02T12:19:44.652Z,4.90
2019-02-02T12:22:11.414Z,6.37
2019-02-02T12:24:38.191Z,6.00
2019-02-02T12:27:05.061Z,8.57
2019-02-02T12:29:31.837Z,9.20
2019-02-02T12:31:58.720Z,8.53
2019-02-02T12:34:25.504Z,10.50
2019-02-02T12:36:52.358Z,10.30
2019-02-02T12:39:19.356Z,11.33
2019-02-02T12:41:46.147Z,13.17
2019-02-02T12:44:13.019Z,12.23
2019-02-02T12:46:39.907Z,9.90
2019-02-02T12:49:06.897Z,7.43
2019-02-02T12:51:33.690Z,10.00
2019-02-02T12:54:00.718Z,10.97
2019-02-02T12:56:27.653Z,11.67
2019-02-02T12:58:54.746Z,11.60
2019-02-02T13:01:21.754Z,12.10
2019-02-02T13:03:48.621Z,15.27
2019-02-02T13:06:15.604Z,13.13
2019-02-02T13:08:42.491Z,16.50
2019-02-02T13:11:09.485Z,17.40
2019-02-02T13:13:36.272Z,20.07
2019-02-02T13:16:03.158Z,16.13
2019-02-02T13:18:30.011Z,14.60
2019-02-02T13:20:56.896Z,16.17
2019-02-02T13:23:23.965Z,15.20
2019-02-02T13:25:50.848Z,16.13
2019-02-02T13:28:17.717Z,17.87
2019-02-02T13:30:44.791Z,14.40
2019-02-02T13:33:11.566Z,18.87
2019-02-02T13:35:40.836Z,14.87
2019-02-02T13:38:07.896Z,17.87
2019-02-02T13:40:34.827Z,16.83
2019-02-02T13:43:01.704Z,16.43
2019-02-02T13:45:28.480Z,17.83
2019-02-02T13:47:55.444Z,20.97
2019-02-02T13:50:22.453Z,24.10
2019-02-02T13:52:49.790Z,28.63
2019-02-02T13:55:16.765Z,21.77
2019-02-02T13:57:43.845Z,21.43
2019-02-02T14:00:13.833Z,20.27
2019-02-02T14:02:40.819Z,18.00
2019-02-02T14:05:10.098Z,16.80
2019-02-02T14:07:36.977Z,15.27
2019-02-02T14:10:04.922Z,18.13
2019-02-02T14:12:31.905Z,16.40
2019-02-02T14:14:58.822Z,15.30
2019-02-02T14:17:25.676Z,17.10
2019-02-02T14:19:52.442Z,16.33
2019-02-02T14:22:19.214Z,19.13
2019-02-02T14:24:46.176Z,21.43
2019-02-02T14:27:13.054Z,22.80
2019-02-02T14:29:39.853Z,21.70
2019-02-02T14:32:06.796Z,22.80
2019-02-02T14:34:40.107Z,23.13
2019-02-02T14:37:02.462Z,22.00
2019-02-02T14:39:29.247Z,23.50
2019-02-02T14:41:56.322Z,29.03
2019-02-02T14:44:23.091Z,25.83
2019-02-02T14:46:49.850Z,31.13
2019-02-02T14:49:16.657Z,26.43
2019-02-02T14:51:43.631Z,24.20
2019-02-02T14:54:10.638Z,28.27
2019-02-02T14:56:37.494Z,22.17
2019-02-02T14:59:04.426Z,27.27
2019-02-02T15:01:31.253Z,22.07
2019-02-02T15:03:58.216Z,22.83
2019-02-02T15:06:25.353Z,25.23
2019-02-02T15:08:52.249Z,27.07
2019-02-02T15:11:19.134Z,24.10
2019-02-02T15:13:45.920Z,25.27
2019-02-02T15:16:12.885Z,23.53
2019-02-02T15:18:39.678Z,25.97
2019-02-02T15:21:06.538Z,24.93
2019-02-02T15:23:33.439Z,22.40
2019-02-02T15:26:00.338Z,26.20
2019-02-02T15:28:27.233Z,21.53
2019-02-02T15:30:54.127Z,25.17
2019-02-02T15:33:20.902Z,27.70
2019-02-02T15:35:47.878Z,23.53
2019-02-02T15:38:14.648Z,25.40
2019-02-02T15:40:41.421Z,26.47
2019-02-02T15:43:08.293Z,22.90
2019-02-02T15:45:35.182Z,28.23
2019-02-02T15:48:02.134Z,23.43
2019-02-02T15:50:29.139Z,28.90
2019-02-02T15:52:56.018Z,24.73
2019-02-02T15:55:22.913Z,29.97
2019-02-02T15:57:49.877Z,25.80
2019-02-02T16:00:22.194Z,26.77
2019-02-02T16:02:49.061Z,27.13
2019-02-02T16:05:16.097Z,25.77
2019-02-02T16:07:43.090Z,25.30
2019-02-02T16:10:15.370Z,27.33
2019-02-02T16:12:42.338Z,27.57
2019-02-02T16:15:09.734Z,26.77
2019-02-02T16:17:39.521Z,27.33
2019-02-02T16:20:10.141Z,26.03
2019-02-02T16:22:37.134Z,25.97
2019-02-02T16:25:05.474Z,29.50
2019-02-02T16:27:32.337Z,28.37
2019-02-02T16:29:59.230Z,29.27
2019-02-02T16:32:26.090Z,30.37
2019-02-02T16:34:53.021Z,32.60
2019-02-02T16:37:19.861Z,33.13
2019-02-02T16:39:46.754Z,29.43
2019-02-02T16:42:13.529Z,32.77
2019-02-02T16:44:40.421Z,32.57
2019-02-02T16:47:07.298Z,32.00
2019-02-02T16:49:34.091Z,36.03
2019-02-02T16:52:00.978Z,27.77
2019-02-02T16:54:27.774Z,31.53
2019-02-02T16:56:54.656Z,28.40
2019-02-02T16:59:21.417Z,29.17
2019-02-02T17:01:48.197Z,30.20
2019-02-02T17:04:16.265Z,29.47
2019-02-02T17:06:43.257Z,29.83
2019-02-02T17:09:10.352Z,31.27
2019-02-02T17:11:37.233Z,32.47
2019-02-02T17:14:04.648Z,35.53
2019-02-02T17:16:31.525Z,32.60
2019-02-02T17:18:58.413Z,37.13
2019-02-02T17:21:25.230Z,33.90
2019-02-02T17:23:52.029Z,39.00
2019-02-02T17:26:18.928Z,36.20
2019-02-02T17:28:45.805Z,36.00
2019-02-02T17:31:12.803Z,35.90
2019-02-02T17:33:39.689Z,59.30
2019-02-02T17:36:06.678Z,54.07
2019-02-02T17:38:33.442Z,55.77
2019-02-02T17:41:00.221Z,48.30
2019-02-02T17:43:26.990Z,43.83
2019-02-02T17:45:53.966Z,37.93
2019-02-02T17:48:21.036Z,40.87
2019-02-02T17:50:47.829Z,39.23
2019-02-02T17:53:14.726Z,38.57
2019-02-02T17:55:41.695Z,44.70
2019-02-02T17:58:08.675Z,38.40
2019-02-02T18:00:43.317Z,35.33
2019-02-02T18:03:10.290Z,36.03
2019-02-02T18:05:37.270Z,37.10
2019-02-02T18:08:04.547Z,38.63
2019-02-02T18:10:31.301Z,34.53
2019-02-02T18:12:58.194Z,45.87
2019-02-02T18:15:24.962Z,47.00
2019-02-02T18:17:51.841Z,55.03
2019-02-02T18:20:18.825Z,56.47
2019-02-02T18:22:45.809Z,55.53
2019-02-02T18:25:13.052Z,52.07
2019-02-02T18:27:39.932Z,73.07
2019-02-02T18:30:10.557Z,62.60
2019-02-02T18:32:37.533Z,59.37
2019-02-02T18:35:05.428Z,57.70
2019-02-02T18:37:32.205Z,57.63
2019-02-02T18:39:59.075Z,54.67
2019-02-02T18:42:25.846Z,52.73
2019-02-02T18:44:52.609Z,48.67
2019-02-02T18:47:19.413Z,41.30
2019-02-02T18:49:46.181Z,36.63
2019-02-02T18:52:12.971Z,36.23
2019-02-02T18:54:39.847Z,35.00
2019-02-02T18:57:06.725Z,35.80
2019-02-02T18:59:33.496Z,41.00
2019-02-02T19:02:00.281Z,32.90
2019-02-02T19:04:27.152Z,40.47
2019-02-02T19:06:54.049Z,42.67
2019-02-02T19:09:21.038Z,41.53
2019-02-02T19:11:47.878Z,42.50
2019-02-02T19:14:14.758Z,52.53
2019-02-02T19:16:41.530Z,52.93
2019-02-02T19:19:08.422Z,43.20
2019-02-02T19:21:35.181Z,42.83
2019-02-02T19:24:01.989Z,53.47
2019-02-02T19:26:28.889Z,45.10
2019-02-02T19:28:55.785Z,39.47
2019-02-02T19:31:22.645Z,46.60
2019-02-02T19:33:49.644Z,44.70
2019-02-02T19:36:16.630Z,44.60
2019-02-02T19:38:43.428Z,42.70
2019-02-02T19:41:10.233Z,41.83
2019-02-02T19:43:37.126Z,43.47
2019-02-02T19:46:04.117Z,43.00
2019-02-02T19:48:31.096Z,41.30
2019-02-02T19:50:57.881Z,48.20
2019-02-02T19:53:24.791Z,59.43
2019-02-02T19:55:51.565Z,53.93
2019-02-02T19:58:18.463Z,51.90
2019-02-02T20:00:46.218Z,43.00
2019-02-02T20:03:13.029Z,44.53
2019-02-02T20:05:40.014Z,45.10
2019-02-02T20:08:06.869Z,55.47
2019-02-02T20:10:33.880Z,56.37
2019-02-02T20:13:00.854Z,66.73
2019-02-02T20:15:27.869Z,69.00
2019-02-02T20:17:55.498Z,65.50
2019-02-02T20:20:23.897Z,68.70
2019-02-02T20:22:50.781Z,73.80
2019-02-02T20:25:17.802Z,52.67
2019-02-02T20:27:44.834Z,50.37
2019-02-02T20:30:14.365Z,46.97
2019-02-02T20:32:41.245Z,48.07
2019-02-02T20:35:08.845Z,50.07
2019-02-02T20:37:35.749Z,48.57
2019-02-02T20:40:03.544Z,46.30
2019-02-02T20:42:30.437Z,52.67
2019-02-02T20:44:57.345Z,69.10
2019-02-02T20:47:24.130Z,59.93
2019-02-02T20:49:51.222Z,63.53
2019-02-02T20:52:18.197Z,73.17
2019-02-02T20:54:45.114Z,73.10
2019-02-02T20:57:12.081Z,66.37
2019-02-02T20:59:39.069Z,63.10
2019-02-02T21:02:06.056Z,64.57
2019-02-02T21:04:33.141Z,63.90
2019-02-02T21:06:59.917Z,62.93
2019-02-02T21:09:26.766Z,65.67
2019-02-02T21:11:57.018Z,57.40
2019-02-02T21:14:22.401Z,65.83
2019-02-02T21:16:49.185Z,54.53
2019-02-02T21:19:15.970Z,50.00
2019-02-02T21:21:43.048Z,55.17
2019-02-02T21:24:10.042Z,50.27
2019-02-02T21:26:36.936Z,50.37
2019-02-02T21:29:03.949Z,54.53
2019-02-02T21:31:30.821Z,55.83
2019-02-02T21:33:59.031Z,50.97
2019-02-02T21:36:26.118Z,53.13
2019-02-02T21:38:53.018Z,57.70
2019-02-02T21:41:19.997Z,50.87
2019-02-02T21:43:46.982Z,52.90
2019-02-02T21:46:13.774Z,56.90
2019-02-02T21:48:40.555Z,51.37
2019-02-02T21:51:07.561Z,57.97
2019-02-02T21:53:34.853Z,57.97
2019-02-02T21:56:01.652Z,57.83
2019-02-02T21:58:28.528Z,58.40
2019-02-02T22:00:55.406Z,55.77
2019-02-02T22:03:22.297Z,56.40
2019-02-02T22:05:49.087Z,60.93
2019-02-02T22:08:16.065Z,51.17
2019-02-02T22:10:43.058Z,55.73
2019-02-02T22:13:10.021Z,51.23
2019-02-02T22:15:36.914Z,60.03
2019-02-02T22:18:04.413Z,58.57
2019-02-02T22:20:31.375Z,58.50
2019-02-02T22:23:01.026Z,64.73
2019-02-02T22:25:29.314Z,57.50
2019-02-02T22:27:56.293Z,55.77
2019-02-02T22:30:27.568Z,60.43
2019-02-02T22:32:57.569Z,58.90
2019-02-02T22:35:24.661Z,58.47
2019-02-02T22:37:51.753Z,63.93
2019-02-02T22:40:20.595Z,59.50
2019-02-02T22:42:47.677Z,64.57
2019-02-02T22:45:16.133Z,55.30
2019-02-02T22:47:43.111Z,58.67
2019-02-02T22:50:11.958Z,60.67
2019-02-02T22:52:38.825Z,65.37
2019-02-02T22:55:07.008Z,61.07
2019-02-02T22:57:33.837Z,55.33
2019-02-02T23:00:00.634Z,63.23
2019-02-02T23:02:27.613Z,63.57
2019-02-02T23:05:38.258Z,58.37
2019-02-02T23:08:32.387Z,51.93
2019-02-02T23:11:39.422Z,50.63
2019-02-02T23:14:45.264Z,58.13
2019-02-02T23:17:12.244Z,59.53
2019-02-02T23:19:39.128Z,55.27
2019-02-02T23:22:06.124Z,56.93
2019-02-02T23:24:33.296Z,57.00
2019-02-02T23:27:00.168Z,54.53
2019-02-02T23:29:27.133Z,58.87
2019-02-02T23:31:54.021Z,55.77
2019-02-02T23:34:20.792Z,53.60
2019-02-02T23:36:52.046Z,53.23
2019-02-02T23:39:16.590Z,55.17
2019-02-02T23:41:43.369Z,58.77
2019-02-02T23:44:10.266Z,55.80
2019-02-02T23:46:37.141Z,57.00
2019-02-02T23:49:04.532Z,56.17
2019-02-02T23:51:31.333Z,60.93
2019-02-02T23:53:58.216Z,67.77
2019-02-02T23:56:25.594Z,68.93
2019-02-02T23:58:52.374Z,66.43
